Time;durP1;ratioP1;P1;durP2;ratioP2;P2;SDS_P1;SDS_P2;PMS_P1;PMS_P2;Temp;Humidity;BMP_temperature;BMP_pressure;BME280_temperature;BME280_humidity;BME280_pressure;Samples;Min_cycle;Max_cycle;Signal;HPM_P1;HPM_P2
2021/09/26 00:00:27;;;;;;;16.00;12.80;;;16.70;1.00;;;;;;5115552;28;20277;-55
2021/09/26 00:02:52;;;;;;;13.20;11.90;;;16.70;1.00;;;;;;5114801;28;20201;-54
2021/09/26 00:05:18;;;;;;;14.10;12.73;;;16.70;1.00;;;;;;5115091;28;20210;-54
2021/09/26 00:07:43;;;;;;;14.30;12.90;;;16.70;1.00;;;;;;5114799;28;20191;-55
2021/09/26 00:10:11;;;;;;;13.63;12.33;;;16.60;1.00;;;;;;5114922;28;20650;-55
2021/09/26 00:12:38;;;;;;;14.53;12.77;;;16.60;1.00;;;;;;5115103;28;20201;-56
2021/09/26 00:15:08;;;;;;;12.77;11.43;;;16.60;1.00;;;;;;5114917;28;20494;-55
2021/09/26 00:17:33;;;;;;;14.47;12.97;;;16.60;1.00;;;;;;5107214;28;20484;-55
2021/09/26 00:19:59;;;;;;;14.70;11.60;;;16.70;1.00;;;;;;5114345;28;20475;-55
2021/09/26 00:22:25;;;;;;;13.83;12.40;;;16.60;1.00;;;;;;5114620;28;20198;-54
2021/09/26 00:24:50;;;;;;;12.30;11.10;;;16.60;1.00;;;;;;5114436;28;20228;-53
2021/09/26 00:27:16;;;;;;;13.53;12.30;;;16.50;1.00;;;;;;5114566;28;20232;-54
2021/09/26 00:29:41;;;;;;;14.20;12.90;;;16.40;1.00;;;;;;5114692;28;20185;-55
2021/09/26 00:32:08;;;;;;;13.17;11.90;;;16.40;1.00;;;;;;5114260;28;20634;-54
2021/09/26 00:34:34;;;;;;;13.23;12.03;;;16.40;1.00;;;;;;5113153;28;20192;-55
2021/09/26 00:37:00;;;;;;;13.73;12.10;;;16.40;1.00;;;;;;5114289;28;20435;-54
2021/09/26 00:39:26;;;;;;;13.53;12.23;;;16.40;1.00;;;;;;5114142;28;20554;-54
2021/09/26 00:41:52;;;;;;;13.27;12.07;;;16.40;1.00;;;;;;5114055;28;20439;-54
2021/09/26 00:44:18;;;;;;;13.03;11.60;;;16.40;1.00;;;;;;5114117;28;20440;-54
2021/09/26 00:46:43;;;;;;;17.30;12.30;;;16.40;1.00;;;;;;5113943;28;20277;-55
2021/09/26 00:49:09;;;;;;;13.37;12.20;;;16.20;1.00;;;;;;5113897;28;20185;-55
2021/09/26 00:51:35;;;;;;;14.07;12.67;;;16.20;1.00;;;;;;5114237;28;20205;-55
2021/09/26 00:54:01;;;;;;;13.93;12.67;;;16.20;1.00;;;;;;5114087;28;20184;-56
2021/09/26 00:56:30;;;;;;;14.40;13.10;;;16.20;1.00;;;;;;5114106;28;20650;-55
2021/09/26 00:58:55;;;;;;;14.47;13.07;;;16.10;1.00;;;;;;5114183;27;20459;-55
2021/09/26 01:01:21;;;;;;;14.87;13.57;;;16.10;1.00;;;;;;5113795;28;20431;-55
2021/09/26 01:03:46;;;;;;;13.90;12.60;;;16.10;1.00;;;;;;5113934;28;20632;-55
2021/09/26 01:06:39;;;;;;;15.90;14.30;;;16.20;1.00;;;;;;5113660;28;20284;-54
2021/09/26 01:09:27;;;;;;;13.90;12.70;;;16.20;1.00;;;;;;5068226;28;20199;-54
2021/09/26 01:12:17;;;;;;;13.50;12.27;;;16.10;1.00;;;;;;5111088;28;20443;-54
2021/09/26 01:14:50;;;;;;;13.07;11.97;;;16.10;1.00;;;;;;5113900;28;20785;-54
2021/09/26 01:17:21;;;;;;;14.60;13.00;;;16.10;1.00;;;;;;5113739;28;20562;-55
2021/09/26 01:20:08;;;;;;;13.47;12.17;;;16.10;1.00;;;;;;5113776;28;20431;-55
2021/09/26 01:22:42;;;;;;;14.37;12.87;;;16.00;1.00;;;;;;5113561;28;20438;-55
2021/09/26 01:25:17;;;;;;;12.53;11.17;;;16.00;1.00;;;;;;5113444;28;20551;-56
2021/09/26 01:28:02;;;;;;;14.10;12.60;;;16.10;1.00;;;;;;5113842;28;20468;-55
2021/09/26 01:30:35;;;;;;;13.10;11.83;;;16.00;1.00;;;;;;5113142;28;20436;-54
2021/09/26 01:33:21;;;;;;;13.47;12.27;;;16.00;1.00;;;;;;5112996;28;20445;-55
2021/09/26 01:36:14;;;;;;;13.13;11.87;;;15.90;1.00;;;;;;5112104;28;20495;-55
2021/09/26 01:38:49;;;;;;;13.40;12.20;;;15.90;1.00;;;;;;5113256;28;20439;-55
2021/09/26 01:41:22;;;;;;;13.50;12.20;;;15.90;1.00;;;;;;5111210;28;20797;-55
2021/09/26 01:43:50;;;;;;;13.13;11.93;;;15.90;1.00;;;;;;5112988;28;20959;-55
2021/09/26 01:46:24;;;;;;;13.43;12.00;;;15.90;1.00;;;;;;5112945;28;20462;-55
2021/09/26 01:49:03;;;;;;;14.73;12.27;;;15.90;1.00;;;;;;5113148;28;20481;-55
2021/09/26 01:51:34;;;;;;;13.80;12.30;;;15.80;1.00;;;;;;5113176;28;20537;-54
2021/09/26 01:54:00;;;;;;;11.80;10.73;;;15.80;1.00;;;;;;5113386;28;20425;-54
2021/09/26 01:56:28;;;;;;;12.37;11.10;;;15.80;1.00;;;;;;5112825;28;20530;-55
2021/09/26 01:58:55;;;;;;;13.10;10.60;;;15.90;1.00;;;;;;5113269;28;20955;-55
2021/09/26 02:01:23;;;;;;;13.57;12.27;;;15.90;1.00;;;;;;5113123;28;20556;-55
2021/09/26 02:03:49;;;;;;;12.40;11.30;;;15.80;1.00;;;;;;5112819;28;20450;-55
2021/09/26 02:06:16;;;;;;;13.23;12.03;;;15.80;1.00;;;;;;5112882;28;20469;-54
2021/09/26 02:08:43;;;;;;;12.80;11.60;;;15.80;1.00;;;;;;5112708;28;20420;-55
2021/09/26 02:11:11;;;;;;;12.60;11.40;;;15.80;1.00;;;;;;5112496;28;20474;-54
2021/09/26 02:13:39;;;;;;;14.73;11.90;;;15.70;1.00;;;;;;5112390;28;20480;-54
2021/09/26 02:16:05;;;;;;;13.00;11.90;;;15.70;1.00;;;;;;5112361;28;20454;-55
2021/09/26 02:18:31;;;;;;;12.80;11.60;;;15.70;1.00;;;;;;5112234;28;20954;-56
2021/09/26 02:20:57;;;;;;;15.60;11.70;;;15.60;1.00;;;;;;5112353;28;20433;-55
2021/09/26 02:23:25;;;;;;;12.93;11.53;;;15.70;1.00;;;;;;5111758;28;20435;-54
2021/09/26 02:25:51;;;;;;;16.87;11.80;;;15.60;1.00;;;;;;5112188;28;20200;-55
2021/09/26 02:28:19;;;;;;;13.13;11.93;;;15.60;1.00;;;;;;5112816;28;20818;-55
2021/09/26 02:30:44;;;;;;;12.40;11.20;;;15.60;1.00;;;;;;5112125;28;20436;-56
2021/09/26 02:33:10;;;;;;;13.03;10.27;;;15.50;1.00;;;;;;5108027;27;20456;-54
2021/09/26 02:35:35;;;;;;;11.77;10.57;;;15.50;1.00;;;;;;5112343;28;20197;-54
2021/09/26 02:38:01;;;;;;;11.73;10.73;;;15.50;1.00;;;;;;5112325;28;20185;-55
2021/09/26 02:40:27;;;;;;;12.70;11.50;;;15.50;1.00;;;;;;5112375;28;20239;-54
2021/09/26 02:43:23;;;;;;;13.23;10.67;;;15.50;1.00;;;;;;5112228;28;20687;-54
2021/09/26 02:46:05;;;;;;;13.77;12.43;;;15.50;1.00;;;;;;5111249;28;20673;-54
2021/09/26 02:48:32;;;;;;;13.10;11.70;;;15.50;1.00;;;;;;5112233;28;20436;-55
2021/09/26 02:50:58;;;;;;;14.27;12.87;;;15.50;1.00;;;;;;5112055;28;20465;-55
2021/09/26 02:53:26;;;;;;;12.17;10.93;;;15.40;1.00;;;;;;5112120;28;20496;-54
2021/09/26 02:55:53;;;;;;;12.20;10.90;;;15.40;1.00;;;;;;5111915;28;20434;-54
2021/09/26 02:58:19;;;;;;;13.80;11.20;;;15.40;1.00;;;;;;5112130;28;20478;-55
2021/09/26 03:00:47;;;;;;;13.60;12.30;;;15.50;1.00;;;;;;5111885;28;20841;-54
2021/09/26 03:03:26;;;;;;;12.47;11.27;;;15.40;1.00;;;;;;5106281;28;20523;-55
2021/09/26 03:05:54;;;;;;;13.50;12.10;;;15.40;1.00;;;;;;5108571;28;20958;-55
2021/09/26 03:08:20;;;;;;;11.60;10.40;;;15.40;1.00;;;;;;5112072;28;20952;-54
2021/09/26 03:10:48;;;;;;;13.00;10.93;;;15.30;1.00;;;;;;5111716;28;20430;-54
2021/09/26 03:13:14;;;;;;;11.43;10.43;;;15.30;1.00;;;;;;5096523;28;20576;-54
2021/09/26 03:15:40;;;;;;;13.03;11.73;;;15.40;1.00;;;;;;5111803;28;20905;-55
2021/09/26 03:18:06;;;;;;;11.93;10.83;;;15.30;1.00;;;;;;5110081;28;20197;-55
2021/09/26 03:20:32;;;;;;;13.37;11.57;;;15.20;1.00;;;;;;5111868;28;20325;-54
2021/09/26 03:22:57;;;;;;;14.00;12.60;;;15.20;1.00;;;;;;5111666;28;20179;-55
2021/09/26 03:25:23;;;;;;;13.27;12.07;;;15.20;1.00;;;;;;5108949;28;21012;-54
2021/09/26 03:27:49;;;;;;;12.70;11.60;;;15.20;1.00;;;;;;5100420;28;20176;-55
2021/09/26 03:30:16;;;;;;;11.70;10.50;;;15.20;1.00;;;;;;5111425;28;20435;-54
2021/09/26 03:32:42;;;;;;;12.73;11.50;;;15.20;1.00;;;;;;5111311;28;20439;-54
2021/09/26 03:35:09;;;;;;;12.43;11.13;;;15.20;1.00;;;;;;5111638;28;20458;-55
2021/09/26 03:37:35;;;;;;;12.50;11.30;;;15.20;1.00;;;;;;5115541;28;20982;-54
2021/09/26 03:40:03;;;;;;;13.17;11.97;;;15.20;1.00;;;;;;5115084;28;20451;-55
2021/09/26 03:42:28;;;;;;;12.37;11.10;;;15.10;1.00;;;;;;5115069;28;21426;-54
2021/09/26 03:44:54;;;;;;;12.17;11.07;;;15.20;1.00;;;;;;5114784;28;20551;-54
2021/09/26 03:47:19;;;;;;;10.80;9.80;;;15.10;1.00;;;;;;5115093;28;20255;-54
2021/09/26 03:49:45;;;;;;;13.07;11.87;;;15.10;1.00;;;;;;5114814;28;20258;-54
2021/09/26 03:52:11;;;;;;;11.67;10.57;;;15.10;1.00;;;;;;5114752;28;20209;-54
2021/09/26 03:54:36;;;;;;;12.23;10.60;;;15.00;1.00;;;;;;5114104;28;20204;-54
2021/09/26 03:57:02;;;;;;;13.33;12.13;;;15.00;1.00;;;;;;5115083;28;20511;-54
2021/09/26 03:59:27;;;;;;;13.03;11.83;;;15.00;1.00;;;;;;5115502;28;20197;-54
2021/09/26 04:01:53;;;;;;;11.83;10.70;;;15.00;1.00;;;;;;5115457;28;20193;-55
2021/09/26 04:04:19;;;;;;;12.50;11.27;;;15.10;1.00;;;;;;5115426;28;20545;-55
2021/09/26 04:06:45;;;;;;;13.00;11.80;;;15.10;1.00;;;;;;5115359;28;20177;-54
2021/09/26 04:09:11;;;;;;;12.33;11.07;;;15.10;1.00;;;;;;5114982;28;20173;-54
2021/09/26 04:11:37;;;;;;;12.93;11.73;;;15.10;1.00;;;;;;5114948;28;20794;-55
2021/09/26 04:14:04;;;;;;;13.00;11.00;;;15.00;1.00;;;;;;5115184;28;20431;-54
2021/09/26 04:16:30;;;;;;;12.10;10.90;;;15.00;1.00;;;;;;5114677;28;20432;-55
2021/09/26 04:18:56;;;;;;;12.67;11.53;;;15.00;1.00;;;;;;5114659;28;20455;-54
2021/09/26 04:21:22;;;;;;;12.70;11.50;;;15.10;1.00;;;;;;5114560;28;20438;-55
2021/09/26 04:23:48;;;;;;;11.70;10.60;;;15.10;1.00;;;;;;5114827;28;20791;-55
2021/09/26 04:26:14;;;;;;;13.17;11.87;;;15.20;1.00;;;;;;5117420;27;20469;-54
2021/09/26 04:28:40;;;;;;;13.23;10.97;;;15.20;1.00;;;;;;5092046;28;20431;-54
2021/09/26 04:31:06;;;;;;;11.83;10.63;;;15.20;1.00;;;;;;5099158;28;20461;-54
2021/09/26 04:33:32;;;;;;;13.20;11.90;;;15.30;1.00;;;;;;5106140;28;20220;-55
2021/09/26 04:35:57;;;;;;;13.20;11.90;;;15.40;1.00;;;;;;5114387;28;20212;-54
2021/09/26 04:38:23;;;;;;;10.50;9.50;;;15.30;1.00;;;;;;5114314;28;20500;-55
2021/09/26 04:40:49;;;;;;;12.50;10.23;;;15.40;1.00;;;;;;5114505;28;20202;-55
2021/09/26 04:43:14;;;;;;;14.40;10.97;;;15.30;1.00;;;;;;5114290;28;20180;-55
2021/09/26 04:45:40;;;;;;;11.30;10.20;;;15.30;1.00;;;;;;5114099;28;20209;-55
2021/09/26 04:48:06;;;;;;;12.00;10.90;;;15.30;1.00;;;;;;5113945;28;20181;-54
2021/09/26 04:50:32;;;;;;;11.07;10.07;;;15.30;1.00;;;;;;5113541;28;20496;-55
2021/09/26 04:52:58;;;;;;;12.00;10.90;;;15.40;1.00;;;;;;5114152;28;20177;-55
2021/09/26 04:55:26;;;;;;;11.70;10.60;;;15.40;1.00;;;;;;5113909;28;20452;-54
2021/09/26 04:57:53;;;;;;;11.33;10.23;;;15.40;1.00;;;;;;5114072;28;20461;-55
2021/09/26 05:00:19;;;;;;;12.10;10.80;;;15.30;1.00;;;;;;5113516;28;20485;-54
2021/09/26 05:02:45;;;;;;;11.83;10.83;;;15.40;1.00;;;;;;5113612;28;21010;-54
2021/09/26 05:05:10;;;;;;;12.20;11.00;;;15.30;1.00;;;;;;5113577;28;20457;-54
2021/09/26 05:07:36;;;;;;;12.17;10.97;;;15.40;1.00;;;;;;5113053;28;20257;-55
2021/09/26 05:10:03;;;;;;;13.57;11.30;;;15.40;1.00;;;;;;5113590;28;20177;-55
2021/09/26 05:12:29;;;;;;;11.57;10.50;;;15.40;1.00;;;;;;5113100;28;20227;-55
2021/09/26 05:15:01;;;;;;;11.60;10.50;;;15.50;1.00;;;;;;5113487;28;20449;-55
2021/09/26 05:17:26;;;;;;;18.43;11.07;;;15.50;1.00;;;;;;5112747;28;20256;-55
2021/09/26 05:19:52;;;;;;;10.77;9.80;;;15.50;1.00;;;;;;5112953;28;20539;-55
2021/09/26 05:22:17;;;;;;;11.53;10.43;;;15.60;1.00;;;;;;5112795;28;20226;-54
2021/09/26 05:24:43;;;;;;;11.80;10.60;;;15.60;1.00;;;;;;5101308;28;20299;-55
2021/09/26 05:27:08;;;;;;;10.57;9.67;;;15.80;1.00;;;;;;5111362;28;20185;-56
2021/09/26 05:29:34;;;;;;;11.17;10.07;;;15.70;1.00;;;;;;5112457;28;20189;-55
2021/09/26 05:31:59;;;;;;;10.50;9.60;;;15.60;1.00;;;;;;5112968;27;20585;-55
2021/09/26 05:34:25;;;;;;;11.40;9.93;;;15.60;1.00;;;;;;5113001;27;20704;-54
2021/09/26 05:36:51;;;;;;;11.30;10.30;;;15.70;1.00;;;;;;5111413;28;20175;-55
2021/09/26 05:39:18;;;;;;;11.40;10.27;;;15.70;1.00;;;;;;5112805;28;20185;-55
2021/09/26 05:41:44;;;;;;;11.93;10.30;;;15.80;1.00;;;;;;5112333;28;20584;-55
2021/09/26 05:44:10;;;;;;;11.80;10.63;;;15.70;1.00;;;;;;5111457;28;20966;-54
2021/09/26 05:46:35;;;;;;;11.87;10.03;;;15.70;1.00;;;;;;5111717;28;20460;-54
2021/09/26 05:49:01;;;;;;;11.43;10.30;;;15.80;1.00;;;;;;5110533;28;20179;-55
2021/09/26 05:51:27;;;;;;;10.30;9.30;;;15.90;1.00;;;;;;5111649;28;20701;-55
2021/09/26 05:53:53;;;;;;;12.07;10.87;;;15.80;1.00;;;;;;5101905;28;20184;-54
2021/09/26 05:56:18;;;;;;;11.70;10.50;;;15.80;1.00;;;;;;5111784;27;20263;-54
2021/09/26 05:58:44;;;;;;;11.53;10.53;;;15.80;1.00;;;;;;5101236;28;20186;-55
2021/09/26 06:01:09;;;;;;;10.77;9.77;;;15.90;1.00;;;;;;5099381;28;20195;-55
2021/09/26 06:03:35;;;;;;;12.07;10.87;;;16.00;1.00;;;;;;5111415;28;20187;-55
2021/09/26 06:06:00;;;;;;;12.17;9.50;;;16.10;1.00;;;;;;5110198;28;20678;-55
2021/09/26 06:08:26;;;;;;;11.43;10.37;;;16.20;1.00;;;;;;5111446;28;20189;-55
2021/09/26 06:10:54;;;;;;;11.30;10.20;;;16.40;1.00;;;;;;5110221;28;20176;-56
2021/09/26 06:13:20;;;;;;;11.77;10.77;;;16.60;1.00;;;;;;5106476;28;20452;-55
2021/09/26 06:15:45;;;;;;;10.60;9.60;;;16.60;1.00;;;;;;5111465;28;20528;-55
2021/09/26 06:18:11;;;;;;;9.87;8.93;;;16.60;1.00;;;;;;5111919;28;20989;-54
2021/09/26 06:20:36;;;;;;;11.17;10.10;;;16.60;1.00;;;;;;5111859;28;20249;-55
2021/09/26 06:23:02;;;;;;;11.90;10.73;;;16.60;1.00;;;;;;5110020;28;20642;-56
2021/09/26 06:25:28;;;;;;;13.53;10.70;;;16.60;1.00;;;;;;5111361;28;20563;-55
2021/09/26 06:27:56;;;;;;;12.80;11.60;;;16.50;1.00;;;;;;5112268;27;20454;-55
2021/09/26 06:30:21;;;;;;;10.63;9.70;;;16.60;1.00;;;;;;5111859;28;20217;-55
2021/09/26 06:32:47;;;;;;;12.63;11.37;;;16.60;1.00;;;;;;5111261;28;20443;-54
2021/09/26 06:35:13;;;;;;;10.10;9.20;;;16.60;1.00;;;;;;5109988;27;20497;-55
2021/09/26 06:37:38;;;;;;;11.47;10.37;;;16.60;1.00;;;;;;5112518;28;20223;-55
2021/09/26 06:40:05;;;;;;;10.70;9.80;;;16.50;1.00;;;;;;5111458;28;20189;-55
2021/09/26 06:42:31;;;;;;;11.10;9.63;;;16.50;1.00;;;;;;5103775;28;20266;-55
2021/09/26 06:44:56;;;;;;;11.10;10.10;;;16.70;1.00;;;;;;5111490;28;20497;-55
2021/09/26 06:47:22;;;;;;;11.20;10.20;;;17.00;1.00;;;;;;5111911;28;20177;-55
2021/09/26 06:49:47;;;;;;;9.23;8.33;;;17.40;1.00;;;;;;5109823;28;20222;-54
2021/09/26 06:52:13;;;;;;;10.07;9.17;;;17.60;1.00;;;;;;5108665;28;20228;-55
2021/09/26 06:54:39;;;;;;;9.90;9.07;;;17.60;1.00;;;;;;5104955;28;20581;-54
2021/09/26 06:57:05;;;;;;;9.33;8.50;;;17.80;1.00;;;;;;5108324;28;20515;-55
2021/09/26 06:59:31;;;;;;;10.20;9.27;;;17.90;1.00;;;;;;5111072;28;20409;-55
2021/09/26 07:01:57;;;;;;;9.30;8.50;;;18.00;1.00;;;;;;5109019;28;20439;-56
2021/09/26 07:04:24;;;;;;;9.40;8.50;;;18.20;1.00;;;;;;5110100;28;20978;-55
2021/09/26 07:06:50;;;;;;;9.93;8.27;;;18.30;1.00;;;;;;5115692;28;20182;-55
2021/09/26 07:09:17;;;;;;;8.97;8.27;;;18.40;1.00;;;;;;5111270;28;20459;-55
2021/09/26 07:11:43;;;;;;;8.17;7.47;;;18.50;1.00;;;;;;5115807;28;20231;-54
2021/09/26 07:14:08;;;;;;;8.70;7.90;;;18.60;1.00;;;;;;5108842;28;20490;-55
2021/09/26 07:16:34;;;;;;;7.83;7.03;;;18.70;1.00;;;;;;5106989;28;20415;-55
2021/09/26 07:18:59;;;;;;;8.30;7.60;;;18.80;1.00;;;;;;5114594;28;20217;-56
2021/09/26 07:21:25;;;;;;;7.40;6.70;;;19.00;1.00;;;;;;5111280;28;20187;-55
2021/09/26 07:23:50;;;;;;;7.20;6.60;;;19.10;1.00;;;;;;5110768;27;20184;-55
2021/09/26 07:26:16;;;;;;;8.67;7.90;;;19.20;1.00;;;;;;5115028;28;20242;-54
2021/09/26 07:28:42;;;;;;;7.20;6.50;;;19.40;1.00;;;;;;5111815;28;20187;-56
2021/09/26 07:31:07;;;;;;;7.90;7.10;;;19.60;1.00;;;;;;5112672;27;20182;-55
2021/09/26 07:33:33;;;;;;;9.87;7.43;;;19.60;1.00;;;;;;5109178;28;20193;-55
2021/09/26 07:35:59;;;;;;;7.67;6.83;;;19.60;1.00;;;;;;5093381;28;20653;-55
2021/09/26 07:38:24;;;;;;;7.47;6.87;;;19.80;1.00;;;;;;5110327;28;20587;-55
2021/09/26 07:40:50;;;;;;;6.87;6.33;;;19.80;1.00;;;;;;5111036;28;20597;-55
2021/09/26 07:43:15;;;;;;;6.80;6.13;;;19.90;1.00;;;;;;5106254;28;20195;-56
2021/09/26 07:45:41;;;;;;;7.30;6.60;;;20.00;1.00;;;;;;5105322;27;20209;-55
2021/09/26 07:48:06;;;;;;;6.30;5.70;;;20.20;1.00;;;;;;5104458;28;20189;-56
2021/09/26 07:50:32;;;;;;;7.33;6.63;;;20.40;1.00;;;;;;5106091;28;20609;-56
2021/09/26 07:52:58;;;;;;;6.90;6.10;;;20.50;1.00;;;;;;5094204;28;20176;-56
2021/09/26 07:55:25;;;;;;;6.70;6.20;;;20.70;1.00;;;;;;5107938;28;20191;-56
2021/09/26 07:57:50;;;;;;;7.80;7.10;;;20.80;1.00;;;;;;5105648;28;20445;-56
2021/09/26 08:00:17;;;;;;;8.17;6.20;;;21.00;1.00;;;;;;5111209;27;21006;-55
2021/09/26 08:02:42;;;;;;;7.10;6.50;;;21.10;1.00;;;;;;5109293;27;20184;-56
2021/09/26 08:05:09;;;;;;;6.37;5.87;;;21.10;1.00;;;;;;5111696;27;20526;-55
2021/09/26 08:07:35;;;;;;;6.30;5.70;;;21.20;1.00;;;;;;5099515;28;20188;-56
2021/09/26 08:10:02;;;;;;;6.77;6.10;;;21.20;1.00;;;;;;5104645;28;20536;-55
2021/09/26 08:12:28;;;;;;;6.87;6.17;;;21.20;1.00;;;;;;5112274;28;20263;-57
2021/09/26 08:14:53;;;;;;;5.70;5.20;;;21.30;1.00;;;;;;5107216;28;20434;-55
2021/09/26 08:17:19;;;;;;;5.97;5.47;;;21.40;1.00;;;;;;5108391;28;20602;-55
2021/09/26 08:19:44;;;;;;;6.70;6.10;;;21.50;1.00;;;;;;5114067;27;20183;-55
2021/09/26 08:22:10;;;;;;;6.67;6.07;;;21.60;1.00;;;;;;5112724;27;20178;-56
2021/09/26 08:24:37;;;;;;;6.57;6.07;;;21.70;1.00;;;;;;5115524;27;20188;-56
2021/09/26 08:27:04;;;;;;;6.10;5.40;;;22.00;1.00;;;;;;5108688;28;20175;-55
2021/09/26 08:29:30;;;;;;;6.10;5.70;;;22.30;1.00;;;;;;5108663;28;20414;-56
2021/09/26 08:31:57;;;;;;;6.53;6.03;;;22.60;1.00;;;;;;5118940;27;20494;-55
2021/09/26 08:34:22;;;;;;;6.10;5.60;;;22.80;1.00;;;;;;5108188;27;20490;-55
2021/09/26 08:36:48;;;;;;;6.20;5.70;;;22.90;1.00;;;;;;5118311;27;20415;-56
2021/09/26 08:39:14;;;;;;;6.07;5.57;;;22.80;1.00;;;;;;5113763;27;20785;-55
2021/09/26 08:41:39;;;;;;;6.03;5.43;;;22.90;1.00;;;;;;5109143;28;20175;-57
2021/09/26 08:44:06;;;;;;;7.03;6.43;;;22.80;1.00;;;;;;5111887;27;20189;-56
2021/09/26 08:46:31;;;;;;;6.87;6.27;;;22.70;1.00;;;;;;5105221;28;20755;-56
2021/09/26 08:48:57;;;;;;;6.00;5.50;;;22.70;1.00;;;;;;5108429;28;20512;-57
2021/09/26 08:51:24;;;;;;;7.87;5.37;;;22.90;1.00;;;;;;5113973;28;20179;-57
2021/09/26 08:53:50;;;;;;;6.20;5.60;;;23.00;1.00;;;;;;5108161;27;20182;-55
2021/09/26 08:56:20;;;;;;;6.10;5.50;;;23.10;1.00;;;;;;5103738;28;20478;-56
2021/09/26 08:58:48;;;;;;;5.93;5.30;;;23.10;1.00;;;;;;5108344;28;20507;-56
2021/09/26 09:01:13;;;;;;;5.47;5.07;;;23.20;1.00;;;;;;5108732;27;20479;-56
2021/09/26 09:03:39;;;;;;;6.17;5.67;;;23.30;1.00;;;;;;5113167;27;20937;-55
2021/09/26 09:06:05;;;;;;;6.67;5.90;;;23.20;1.00;;;;;;5103775;28;20255;-56
2021/09/26 09:08:30;;;;;;;6.80;6.17;;;23.30;1.00;;;;;;5105068;28;20267;-56
2021/09/26 09:11:00;;;;;;;5.83;5.33;;;23.20;1.00;;;;;;5112136;27;20178;-56
2021/09/26 09:13:32;;;;;;;5.93;5.43;;;23.20;1.00;;;;;;5110194;28;20194;-55
2021/09/26 09:16:10;;;;;;;7.23;6.17;;;23.30;1.00;;;;;;5107814;28;20425;-56
2021/09/26 09:18:44;;;;;;;6.07;5.57;;;23.30;1.00;;;;;;5109106;28;20535;-56
2021/09/26 09:21:33;;;;;;;6.93;5.63;;;23.40;1.00;;;;;;5112636;28;20417;-57
2021/09/26 09:24:11;;;;;;;6.60;6.00;;;23.50;1.00;;;;;;5108212;28;20440;-56
2021/09/26 09:26:38;;;;;;;6.03;5.50;;;23.50;1.00;;;;;;5105208;28;20465;-57
2021/09/26 09:29:05;;;;;;;5.73;5.33;;;23.60;1.00;;;;;;5103696;28;20778;-56
2021/09/26 09:31:31;;;;;;;5.53;5.00;;;23.70;1.00;;;;;;5116710;27;21057;-56
2021/09/26 09:33:57;;;;;;;6.00;5.40;;;23.70;1.00;;;;;;5092339;28;20548;-56
2021/09/26 09:36:30;;;;;;;6.00;5.50;;;23.70;1.00;;;;;;5110399;28;20411;-56
2021/09/26 09:39:06;;;;;;;6.37;5.77;;;23.90;1.00;;;;;;5108137;28;20194;-57
2021/09/26 09:41:47;;;;;;;5.10;4.70;;;24.00;1.00;;;;;;5108338;28;20852;-56
2021/09/26 09:44:15;;;;;;;5.43;5.03;;;24.20;1.00;;;;;;5101193;28;20434;-56
2021/09/26 09:46:46;;;;;;;10.53;6.20;;;24.40;1.00;;;;;;5108244;28;20443;-56
2021/09/26 09:49:22;;;;;;;5.87;5.37;;;24.60;1.00;;;;;;5111941;28;20485;-55
2021/09/26 09:51:56;;;;;;;5.53;5.03;;;24.70;1.00;;;;;;5104170;28;20438;-56
2021/09/26 09:54:29;;;;;;;5.40;5.00;;;24.70;1.00;;;;;;5108468;28;20411;-56
2021/09/26 09:56:56;;;;;;;5.87;5.47;;;24.60;1.00;;;;;;5104910;28;20920;-56
2021/09/26 09:59:33;;;;;;;6.07;5.57;;;24.70;1.00;;;;;;5111930;28;20453;-57
2021/09/26 10:01:59;;;;;;;6.23;4.73;;;24.90;1.00;;;;;;5105792;28;20446;-56
2021/09/26 10:04:39;;;;;;;5.40;4.90;;;24.90;1.00;;;;;;5103658;28;20444;-57
2021/09/26 10:07:20;;;;;;;5.73;5.23;;;24.90;1.00;;;;;;5103129;28;20184;-56
2021/09/26 10:09:47;;;;;;;7.30;5.37;;;25.00;1.00;;;;;;5106809;28;20523;-56
2021/09/26 10:12:21;;;;;;;6.70;5.17;;;24.90;1.00;;;;;;5107159;28;20442;-55
2021/09/26 10:14:49;;;;;;;5.90;4.60;;;24.90;1.00;;;;;;5106490;28;20488;-55
2021/09/26 10:17:14;;;;;;;5.10;4.70;;;24.90;1.00;;;;;;5105268;28;20529;-56
2021/09/26 10:19:40;;;;;;;4.97;4.57;;;25.00;1.00;;;;;;5097002;28;20436;-55
2021/09/26 10:22:06;;;;;;;5.90;5.30;;;25.00;1.00;;;;;;5108267;28;20561;-55
2021/09/26 10:24:34;;;;;;;5.50;5.00;;;25.00;1.00;;;;;;5107940;28;20191;-56
2021/09/26 10:27:05;;;;;;;6.50;5.90;;;25.20;1.00;;;;;;5105942;28;20183;-55
2021/09/26 10:29:32;;;;;;;6.33;4.67;;;25.20;1.00;;;;;;5105680;28;20412;-56
2021/09/26 10:32:00;;;;;;;6.17;5.57;;;25.30;1.00;;;;;;5108756;28;20441;-56
2021/09/26 10:34:26;;;;;;;5.23;4.73;;;25.40;1.00;;;;;;5108450;28;20415;-56
2021/09/26 10:36:52;;;;;;;7.60;5.67;;;25.40;1.00;;;;;;5112313;27;20863;-55
2021/09/26 10:39:19;;;;;;;5.70;4.90;;;25.40;1.00;;;;;;5110082;28;20646;-56
2021/09/26 10:42:05;;;;;;;5.93;5.10;;;25.50;1.00;;;;;;5108206;28;20491;-56
2021/09/26 10:44:31;;;;;;;5.53;5.03;;;25.50;1.00;;;;;;5111385;28;20444;-56
2021/09/26 10:47:21;;;;;;;6.30;5.60;;;25.60;1.00;;;;;;5108552;28;20549;-56
2021/09/26 10:49:50;;;;;;;4.33;4.00;;;25.70;1.00;;;;;;5100685;28;20451;-56
2021/09/26 10:52:29;;;;;;;6.90;5.43;;;25.60;1.00;;;;;;5110964;28;20814;-57
2021/09/26 10:55:18;;;;;;;5.00;4.60;;;25.70;1.00;;;;;;5109975;28;20537;-57
2021/09/26 10:57:46;;;;;;;5.40;4.90;;;25.90;1.00;;;;;;5108931;28;20505;-57
2021/09/26 11:00:27;;;;;;;5.20;4.80;;;26.00;1.00;;;;;;5100150;28;20452;-56
2021/09/26 11:02:54;;;;;;;5.10;4.70;;;26.00;1.00;;;;;;5108594;28;20411;-57
2021/09/26 11:05:37;;;;;;;6.93;4.87;;;26.10;1.00;;;;;;5104286;28;20952;-56
2021/09/26 11:08:05;;;;;;;6.30;4.80;;;26.10;1.00;;;;;;5107342;28;20418;-57
2021/09/26 11:10:41;;;;;;;6.80;4.90;;;26.20;1.00;;;;;;5106497;28;20440;-56
2021/09/26 11:13:10;;;;;;;5.77;5.27;;;26.30;1.00;;;;;;5105538;28;20987;-56
2021/09/26 11:15:57;;;;;;;5.10;4.60;;;26.20;1.00;;;;;;5104849;28;20416;-56
2021/09/26 11:18:49;;;;;;;5.20;4.70;;;26.30;1.00;;;;;;5108577;28;20508;-56
2021/09/26 11:21:40;;;;;;;5.00;4.50;;;26.40;1.00;;;;;;5107014;28;20435;-56
2021/09/26 11:24:25;;;;;;;5.00;4.50;;;26.30;1.00;;;;;;5107357;28;20835;-56
2021/09/26 11:27:00;;;;;;;3.83;3.50;;;26.30;1.00;;;;;;5110318;28;20424;-56
2021/09/26 11:29:30;;;;;;;5.03;4.47;;;26.30;1.00;;;;;;5105543;28;20420;-57
2021/09/26 11:31:57;;;;;;;5.30;4.80;;;26.30;1.00;;;;;;5098122;28;20999;-56
2021/09/26 11:34:36;;;;;;;5.47;4.87;;;26.50;1.00;;;;;;5108059;28;20516;-56
2021/09/26 11:37:03;;;;;;;5.07;4.67;;;26.40;1.00;;;;;;5109335;28;20770;-57
2021/09/26 11:39:30;;;;;;;6.40;4.40;;;26.40;1.00;;;;;;5105531;28;20420;-56
2021/09/26 11:41:56;;;;;;;4.40;4.00;;;26.30;1.00;;;;;;5110839;28;20819;-57
2021/09/26 11:44:22;;;;;;;6.50;5.90;;;26.60;1.00;;;;;;5096661;28;20472;-56
2021/09/26 11:46:49;;;;;;;5.40;4.90;;;26.60;1.00;;;;;;5109682;28;20467;-56
2021/09/26 11:49:15;;;;;;;5.00;4.60;;;26.50;1.00;;;;;;5099522;28;20442;-57
2021/09/26 11:51:41;;;;;;;6.10;4.73;;;26.20;1.00;;;;;;5110169;28;20972;-59
2021/09/26 11:54:07;;;;;;;6.13;5.00;;;26.00;1.00;;;;;;5106466;28;20442;-56
2021/09/26 11:56:39;;;;;;;5.07;4.57;;;26.00;1.00;;;;;;5107025;28;20431;-57
2021/09/26 11:59:07;;;;;;;5.40;4.80;;;25.80;1.00;;;;;;5110281;28;20446;-56
2021/09/26 12:01:38;;;;;;;5.27;4.70;;;25.80;1.00;;;;;;5108244;28;20470;-57
2021/09/26 12:04:08;;;;;;;6.33;4.67;;;25.70;1.00;;;;;;5110970;28;20423;-56
2021/09/26 12:06:34;;;;;;;4.60;4.20;;;25.80;1.00;;;;;;5109616;28;20446;-57
2021/09/26 12:09:00;;;;;;;4.70;4.30;;;26.00;1.00;;;;;;5107634;28;20552;-57
2021/09/26 12:11:25;;;;;;;4.23;3.93;;;26.20;1.00;;;;;;5107584;27;20503;-56
2021/09/26 12:13:56;;;;;;;3.93;3.60;;;26.50;1.00;;;;;;5099942;28;20193;-56
2021/09/26 12:16:23;;;;;;;4.13;3.73;;;26.70;1.00;;;;;;5109790;28;20188;-57
2021/09/26 12:18:57;;;;;;;4.00;3.60;;;26.70;1.00;;;;;;5113233;28;20781;-57
2021/09/26 12:21:27;;;;;;;4.43;3.80;;;26.90;1.00;;;;;;5110080;28;20856;-56
2021/09/26 12:23:59;;;;;;;8.27;4.57;;;27.20;1.00;;;;;;5110203;27;20927;-55
2021/09/26 12:26:35;;;;;;;6.00;4.10;;;27.30;1.00;;;;;;5109199;28;20445;-55
2021/09/26 12:29:08;;;;;;;5.50;3.80;;;27.60;1.00;;;;;;5110199;27;20442;-56
2021/09/26 12:31:35;;;;;;;4.43;4.03;;;28.10;1.00;;;;;;5108292;28;20429;-55
2021/09/26 12:34:02;;;;;;;4.13;3.83;;;28.30;1.00;;;;;;5106554;28;20437;-57
2021/09/26 12:36:33;;;;;;;3.37;3.07;;;28.60;1.00;;;;;;5110452;27;20586;-57
2021/09/26 12:38:59;;;;;;;3.90;3.60;;;28.90;1.00;;;;;;5105926;28;20456;-56
2021/09/26 12:41:50;;;;;;;4.53;4.00;;;28.90;1.00;;;;;;5108380;28;20899;-57
2021/09/26 12:44:25;;;;;;;3.83;3.53;;;28.60;1.00;;;;;;5109565;28;20937;-56
2021/09/26 12:46:51;;;;;;;3.93;3.53;;;28.40;1.00;;;;;;5108092;27;20449;-56
2021/09/26 12:49:21;;;;;;;4.33;3.70;;;28.30;1.00;;;;;;5106907;28;20484;-56
2021/09/26 12:52:03;;;;;;;4.20;3.60;;;28.30;1.00;;;;;;5107133;28;20180;-57